📊 Raw Sensor Data
Showing records 43326 to 43350 of 85,016 total
| ID | Distance (ft) | Battery V | Battery A | Int Temp (°F) | Int Humid (%) | Ext Temp (°F) | Solar V | RSSI | SNR | Time Stamp |
|---|---|---|---|---|---|---|---|---|---|---|
| 41703 | 15.9 | 4.01 | 0 | 73 | 42 | 76 | 5.10 | -68 | 8 | 05/26/2025 11:15 AM |
| 41702 | 15.9 | 3.89 | 0 | 72 | 42 | 70 | 5.10 | -68 | 7 | 05/26/2025 11:00 AM |
| 41701 | 15.8 | 3.89 | 0 | 71 | 43 | 72 | 5.10 | -68 | 7 | 05/26/2025 10:45 AM |
| 41700 | 15.8 | 3.89 | 0 | 69 | 44 | 71 | 5.10 | -69 | 8 | 05/26/2025 10:30 AM |
| 41699 | 15.8 | 3.89 | 0 | 70 | 43 | 69 | 5.10 | -68 | 7 | 05/26/2025 10:15 AM |
| 41698 | 15.9 | 3.89 | 0 | 72 | 42 | 70 | 5.10 | -68 | 7 | 05/26/2025 10:00 AM |
| 41697 | 15.8 | 3.89 | 0 | 71 | 42 | 74 | 5.10 | -68 | 8 | 05/26/2025 09:45 AM |
| 41696 | 15.9 | 3.89 | 0 | 69 | 42 | 71 | 5.10 | -69 | 8 | 05/26/2025 09:30 AM |
| 41695 | 15.9 | 3.89 | 0 | 68 | 42 | 71 | 5.10 | -69 | 7 | 05/26/2025 09:15 AM |
| 41694 | 15.9 | 3.88 | 0 | 67 | 43 | 71 | 5.10 | -69 | 8 | 05/26/2025 09:00 AM |
| 41693 | 15.9 | 3.88 | 0 | 66 | 43 | 68 | 5.10 | -68 | 8 | 05/26/2025 08:45 AM |
| 41692 | 15.9 | 3.90 | 0 | 64 | 43 | 69 | 5.10 | -68 | 7 | 05/26/2025 08:30 AM |
| 41691 | 15.9 | 3.88 | 0 | 63 | 43 | 64 | 5.10 | -69 | 8 | 05/26/2025 08:15 AM |
| 41690 | 15.9 | 3.89 | 0 | 62 | 42 | 65 | 5.10 | -69 | 8 | 05/26/2025 08:00 AM |
| 41689 | 15.9 | 3.89 | 0 | 62 | 41 | 67 | 5.10 | -67 | 7 | 05/26/2025 07:45 AM |
| 41688 | 15.8 | 4.06 | 46 | 60 | 41 | 65 | 4.50 | -69 | 8 | 05/26/2025 07:30 AM |
| 41687 | 15.8 | 3.93 | 16 | 58 | 41 | 65 | 4.50 | -69 | 8 | 05/26/2025 07:15 AM |
| 41686 | 15.8 | 3.96 | -9 | 56 | 40 | 62 | 4.50 | -69 | 8 | 05/26/2025 07:00 AM |
| 41685 | 15.8 | 3.92 | 0 | 55 | 40 | 61 | 4.50 | -68 | 8 | 05/26/2025 06:45 AM |
| 41684 | 15.7 | 3.91 | 0 | 52 | 41 | 60 | 4.50 | -68 | 8 | 05/26/2025 06:30 AM |
| 41683 | 15.6 | 3.77 | 0 | 50 | 42 | 53 | 4.50 | -67 | 8 | 05/26/2025 06:15 AM |
| 41682 | 15.7 | 3.71 | -10 | 49 | 42 | 50 | 4.50 | -68 | 8 | 05/26/2025 06:00 AM |
| 41681 | 15.7 | 3.74 | -5 | 49 | 42 | 51 | 1.20 | -68 | 8 | 05/26/2025 05:45 AM |
| 41680 | 15.7 | 3.72 | -5 | 49 | 42 | 51 | 0.30 | -69 | 8 | 05/26/2025 05:30 AM |
| 41679 | 15.7 | 3.76 | -5 | 49 | 42 | 51 | 0.00 | -69 | 8 | 05/26/2025 05:15 AM |